sensor_id;sensor_type;location;lat;lon;timestamp;P1;durP1;ratioP1;P2;durP2;ratioP2
22268;SDS011;11303;50.772;19.670;2023-04-06T00:01:21;63.95;;;29.75;;
22268;SDS011;11303;50.772;19.670;2023-04-06T00:03:22;65.25;;;32.05;;
22268;SDS011;11303;50.772;19.670;2023-04-06T00:05:24;63.35;;;32.00;;
22268;SDS011;11303;50.772;19.670;2023-04-06T00:07:25;72.20;;;32.45;;
22268;SDS011;11303;50.772;19.670;2023-04-06T00:09:27;67.50;;;33.30;;
22268;SDS011;11303;50.772;19.670;2023-04-06T00:11:28;62.03;;;29.98;;
22268;SDS011;11303;50.772;19.670;2023-04-06T00:13:30;62.90;;;31.65;;
22268;SDS011;11303;50.772;19.670;2023-04-06T00:15:31;54.80;;;26.83;;
22268;SDS011;11303;50.772;19.670;2023-04-06T00:17:33;53.28;;;25.75;;
22268;SDS011;11303;50.772;19.670;2023-04-06T00:19:34;50.70;;;25.35;;
22268;SDS011;11303;50.772;19.670;2023-04-06T00:21:36;58.97;;;26.90;;
22268;SDS011;11303;50.772;19.670;2023-04-06T00:23:37;52.28;;;26.33;;
22268;SDS011;11303;50.772;19.670;2023-04-06T00:25:38;54.05;;;26.42;;
22268;SDS011;11303;50.772;19.670;2023-04-06T00:27:40;58.88;;;28.13;;
22268;SDS011;11303;50.772;19.670;2023-04-06T00:29:43;52.08;;;25.40;;
22268;SDS011;11303;50.772;19.670;2023-04-06T00:31:44;58.10;;;26.67;;
22268;SDS011;11303;50.772;19.670;2023-04-06T00:33:47;61.30;;;27.10;;
22268;SDS011;11303;50.772;19.670;2023-04-06T00:35:49;54.15;;;27.58;;
22268;SDS011;11303;50.772;19.670;2023-04-06T00:37:50;56.85;;;30.15;;
22268;SDS011;11303;50.772;19.670;2023-04-06T00:39:52;55.35;;;27.65;;
22268;SDS011;11303;50.772;19.670;2023-04-06T00:41:53;59.22;;;27.38;;
22268;SDS011;11303;50.772;19.670;2023-04-06T00:43:56;55.05;;;26.90;;
22268;SDS011;11303;50.772;19.670;2023-04-06T00:45:57;57.88;;;28.33;;
22268;SDS011;11303;50.772;19.670;2023-04-06T00:47:59;57.50;;;28.00;;
22268;SDS011;11303;50.772;19.670;2023-04-06T00:50:00;46.38;;;25.48;;
22268;SDS011;11303;50.772;19.670;2023-04-06T00:52:02;56.85;;;25.55;;
22268;SDS011;11303;50.772;19.670;2023-04-06T00:54:03;46.65;;;21.55;;
22268;SDS011;11303;50.772;19.670;2023-04-06T00:56:05;47.97;;;22.67;;
22268;SDS011;11303;50.772;19.670;2023-04-06T00:58:06;43.67;;;22.83;;
22268;SDS011;11303;50.772;19.670;2023-04-06T01:00:08;52.30;;;23.08;;
22268;SDS011;11303;50.772;19.670;2023-04-06T01:02:11;52.78;;;23.13;;
22268;SDS011;11303;50.772;19.670;2023-04-06T01:04:12;49.53;;;23.75;;
22268;SDS011;11303;50.772;19.670;2023-04-06T01:06:14;52.35;;;24.23;;
22268;SDS011;11303;50.772;19.670;2023-04-06T01:08:15;52.05;;;24.13;;
22268;SDS011;11303;50.772;19.670;2023-04-06T01:10:24;52.15;;;23.80;;
22268;SDS011;11303;50.772;19.670;2023-04-06T01:12:26;33.90;;;16.83;;
22268;SDS011;11303;50.772;19.670;2023-04-06T01:14:27;50.78;;;26.50;;
22268;SDS011;11303;50.772;19.670;2023-04-06T01:16:29;61.45;;;29.02;;
22268;SDS011;11303;50.772;19.670;2023-04-06T01:18:30;56.28;;;26.63;;
22268;SDS011;11303;50.772;19.670;2023-04-06T01:20:32;52.28;;;25.05;;
22268;SDS011;11303;50.772;19.670;2023-04-06T01:22:33;51.08;;;24.92;;
22268;SDS011;11303;50.772;19.670;2023-04-06T01:24:35;54.80;;;25.13;;
22268;SDS011;11303;50.772;19.670;2023-04-06T01:26:37;53.25;;;26.17;;
22268;SDS011;11303;50.772;19.670;2023-04-06T01:28:39;60.92;;;29.45;;
22268;SDS011;11303;50.772;19.670;2023-04-06T01:30:41;59.65;;;27.40;;
22268;SDS011;11303;50.772;19.670;2023-04-06T01:32:43;60.92;;;27.85;;
22268;SDS011;11303;50.772;19.670;2023-04-06T01:34:44;64.55;;;27.02;;
22268;SDS011;11303;50.772;19.670;2023-04-06T01:36:46;59.60;;;28.67;;
22268;SDS011;11303;50.772;19.670;2023-04-06T01:38:48;56.03;;;28.60;;
22268;SDS011;11303;50.772;19.670;2023-04-06T01:40:49;58.97;;;28.92;;
22268;SDS011;11303;50.772;19.670;2023-04-06T01:42:51;65.57;;;29.75;;
22268;SDS011;11303;50.772;19.670;2023-04-06T01:44:52;63.58;;;31.17;;
22268;SDS011;11303;50.772;19.670;2023-04-06T01:46:54;61.70;;;31.90;;
22268;SDS011;11303;50.772;19.670;2023-04-06T01:48:56;63.60;;;31.15;;
22268;SDS011;11303;50.772;19.670;2023-04-06T01:50:58;62.35;;;31.60;;
22268;SDS011;11303;50.772;19.670;2023-04-06T01:52:59;69.70;;;36.80;;
22268;SDS011;11303;50.772;19.670;2023-04-06T01:55:01;68.13;;;35.85;;
22268;SDS011;11303;50.772;19.670;2023-04-06T01:57:03;74.75;;;35.67;;
22268;SDS011;11303;50.772;19.670;2023-04-06T01:59:04;74.07;;;40.80;;
22268;SDS011;11303;50.772;19.670;2023-04-06T02:01:06;71.35;;;35.78;;
22268;SDS011;11303;50.772;19.670;2023-04-06T02:03:08;69.57;;;34.50;;
22268;SDS011;11303;50.772;19.670;2023-04-06T02:05:09;56.83;;;30.35;;
22268;SDS011;11303;50.772;19.670;2023-04-06T02:07:11;68.40;;;31.73;;
22268;SDS011;11303;50.772;19.670;2023-04-06T02:09:12;68.72;;;33.95;;
22268;SDS011;11303;50.772;19.670;2023-04-06T02:11:14;70.97;;;34.45;;
22268;SDS011;11303;50.772;19.670;2023-04-06T02:13:15;69.40;;;32.95;;
22268;SDS011;11303;50.772;19.670;2023-04-06T02:15:17;66.47;;;31.80;;
22268;SDS011;11303;50.772;19.670;2023-04-06T02:17:18;71.75;;;35.03;;
22268;SDS011;11303;50.772;19.670;2023-04-06T02:19:20;67.60;;;35.00;;
22268;SDS011;11303;50.772;19.670;2023-04-06T02:21:21;79.53;;;38.80;;
22268;SDS011;11303;50.772;19.670;2023-04-06T02:23:23;74.82;;;35.83;;
22268;SDS011;11303;50.772;19.670;2023-04-06T02:25:24;74.88;;;35.70;;
22268;SDS011;11303;50.772;19.670;2023-04-06T02:27:26;71.82;;;36.63;;
22268;SDS011;11303;50.772;19.670;2023-04-06T02:29:27;81.85;;;37.72;;
22268;SDS011;11303;50.772;19.670;2023-04-06T02:31:29;75.43;;;34.83;;
22268;SDS011;11303;50.772;19.670;2023-04-06T02:33:30;68.63;;;33.92;;
22268;SDS011;11303;50.772;19.670;2023-04-06T02:35:32;74.05;;;36.83;;
22268;SDS011;11303;50.772;19.670;2023-04-06T02:37:33;72.25;;;37.13;;
22268;SDS011;11303;50.772;19.670;2023-04-06T02:39:35;79.57;;;36.90;;
22268;SDS011;11303;50.772;19.670;2023-04-06T02:41:37;69.85;;;35.75;;
22268;SDS011;11303;50.772;19.670;2023-04-06T02:43:38;78.82;;;37.60;;
22268;SDS011;11303;50.772;19.670;2023-04-06T02:45:39;72.47;;;35.95;;
22268;SDS011;11303;50.772;19.670;2023-04-06T02:47:41;78.82;;;36.20;;
22268;SDS011;11303;50.772;19.670;2023-04-06T02:49:43;72.00;;;38.22;;
22268;SDS011;11303;50.772;19.670;2023-04-06T02:51:45;72.85;;;36.00;;
22268;SDS011;11303;50.772;19.670;2023-04-06T02:53:47;66.78;;;33.13;;
22268;SDS011;11303;50.772;19.670;2023-04-06T02:55:48;66.25;;;33.63;;
22268;SDS011;11303;50.772;19.670;2023-04-06T02:57:49;67.20;;;33.72;;
22268;SDS011;11303;50.772;19.670;2023-04-06T02:59:51;76.45;;;38.28;;
22268;SDS011;11303;50.772;19.670;2023-04-06T03:01:52;82.47;;;38.83;;
22268;SDS011;11303;50.772;19.670;2023-04-06T03:03:54;69.53;;;35.45;;
22268;SDS011;11303;50.772;19.670;2023-04-06T03:05:56;71.10;;;35.42;;
22268;SDS011;11303;50.772;19.670;2023-04-06T03:07:59;71.63;;;35.58;;
22268;SDS011;11303;50.772;19.670;2023-04-06T03:10:01;75.40;;;36.95;;
22268;SDS011;11303;50.772;19.670;2023-04-06T03:12:02;72.90;;;39.45;;
22268;SDS011;11303;50.772;19.670;2023-04-06T03:14:04;79.10;;;38.70;;
22268;SDS011;11303;50.772;19.670;2023-04-06T03:16:06;77.88;;;38.95;;
22268;SDS011;11303;50.772;19.670;2023-04-06T03:18:07;72.70;;;37.58;;
22268;SDS011;11303;50.772;19.670;2023-04-06T03:20:09;71.88;;;35.72;;
22268;SDS011;11303;50.772;19.670;2023-04-06T03:22:11;68.40;;;33.47;;
22268;SDS011;11303;50.772;19.670;2023-04-06T03:24:12;81.85;;;39.30;;
22268;SDS011;11303;50.772;19.670;2023-04-06T03:26:15;84.47;;;43.30;;
22268;SDS011;11303;50.772;19.670;2023-04-06T03:28:16;91.82;;;42.03;;
22268;SDS011;11303;50.772;19.670;2023-04-06T03:30:17;75.57;;;39.00;;
22268;SDS011;11303;50.772;19.670;2023-04-06T03:32:19;72.57;;;36.50;;
22268;SDS011;11303;50.772;19.670;2023-04-06T03:34:20;81.38;;;39.53;;
22268;SDS011;11303;50.772;19.670;2023-04-06T03:36:22;90.63;;;43.85;;
22268;SDS011;11303;50.772;19.670;2023-04-06T03:38:23;85.57;;;41.15;;
22268;SDS011;11303;50.772;19.670;2023-04-06T03:40:25;74.68;;;38.17;;
22268;SDS011;11303;50.772;19.670;2023-04-06T03:42:26;76.75;;;37.65;;
22268;SDS011;11303;50.772;19.670;2023-04-06T03:44:28;83.32;;;39.08;;
22268;SDS011;11303;50.772;19.670;2023-04-06T03:46:29;77.97;;;36.95;;
22268;SDS011;11303;50.772;19.670;2023-04-06T03:48:31;79.90;;;38.53;;
22268;SDS011;11303;50.772;19.670;2023-04-06T03:50:32;85.75;;;43.17;;
22268;SDS011;11303;50.772;19.670;2023-04-06T03:52:34;80.80;;;41.42;;
22268;SDS011;11303;50.772;19.670;2023-04-06T03:54:36;84.75;;;43.33;;
22268;SDS011;11303;50.772;19.670;2023-04-06T03:56:38;80.97;;;43.42;;
22268;SDS011;11303;50.772;19.670;2023-04-06T03:58:39;73.95;;;35.60;;
22268;SDS011;11303;50.772;19.670;2023-04-06T04:00:40;78.53;;;37.35;;
22268;SDS011;11303;50.772;19.670;2023-04-06T04:02:42;79.70;;;35.92;;
22268;SDS011;11303;50.772;19.670;2023-04-06T04:04:43;71.68;;;35.35;;
22268;SDS011;11303;50.772;19.670;2023-04-06T04:06:45;68.28;;;31.63;;
22268;SDS011;11303;50.772;19.670;2023-04-06T04:08:47;64.25;;;29.08;;
22268;SDS011;11303;50.772;19.670;2023-04-06T04:10:48;80.80;;;34.38;;
22268;SDS011;11303;50.772;19.670;2023-04-06T04:12:50;61.95;;;31.77;;
22268;SDS011;11303;50.772;19.670;2023-04-06T04:14:51;57.53;;;28.80;;
22268;SDS011;11303;50.772;19.670;2023-04-06T04:16:53;58.70;;;28.50;;
22268;SDS011;11303;50.772;19.670;2023-04-06T04:18:54;64.95;;;34.22;;
22268;SDS011;11303;50.772;19.670;2023-04-06T04:20:56;77.55;;;39.25;;
22268;SDS011;11303;50.772;19.670;2023-04-06T04:22:57;86.97;;;40.03;;
22268;SDS011;11303;50.772;19.670;2023-04-06T04:24:59;64.45;;;34.13;;
22268;SDS011;11303;50.772;19.670;2023-04-06T04:27:00;101.63;;;45.30;;
22268;SDS011;11303;50.772;19.670;2023-04-06T04:29:02;76.75;;;38.70;;
22268;SDS011;11303;50.772;19.670;2023-04-06T04:31:03;83.40;;;39.05;;
22268;SDS011;11303;50.772;19.670;2023-04-06T04:33:08;68.72;;;33.40;;
22268;SDS011;11303;50.772;19.670;2023-04-06T04:35:22;77.82;;;36.03;;
22268;SDS011;11303;50.772;19.670;2023-04-06T04:37:23;71.55;;;33.72;;
22268;SDS011;11303;50.772;19.670;2023-04-06T04:39:54;90.30;;;36.20;;
22268;SDS011;11303;50.772;19.670;2023-04-06T04:42:08;90.57;;;38.70;;
22268;SDS011;11303;50.772;19.670;2023-04-06T04:44:31;53.28;;;27.70;;
22268;SDS011;11303;50.772;19.670;2023-04-06T04:46:40;71.75;;;36.72;;
22268;SDS011;11303;50.772;19.670;2023-04-06T04:48:55;63.58;;;29.45;;
22268;SDS011;11303;50.772;19.670;2023-04-06T04:51:08;49.65;;;26.88;;
22268;SDS011;11303;50.772;19.670;2023-04-06T04:53:31;51.72;;;25.73;;
22268;SDS011;11303;50.772;19.670;2023-04-06T04:55:41;55.67;;;27.58;;
22268;SDS011;11303;50.772;19.670;2023-04-06T04:58:01;55.85;;;27.35;;
22268;SDS011;11303;50.772;19.670;2023-04-06T05:00:09;56.85;;;27.98;;
22268;SDS011;11303;50.772;19.670;2023-04-06T05:02:14;66.05;;;32.20;;
22268;SDS011;11303;50.772;19.670;2023-04-06T05:04:51;57.50;;;28.60;;
22268;SDS011;11303;50.772;19.670;2023-04-06T05:07:07;49.28;;;26.23;;
22268;SDS011;11303;50.772;19.670;2023-04-06T05:09:11;58.47;;;26.48;;
22268;SDS011;11303;50.772;19.670;2023-04-06T05:11:23;63.33;;;29.40;;
22268;SDS011;11303;50.772;19.670;2023-04-06T05:13:53;61.13;;;29.38;;
22268;SDS011;11303;50.772;19.670;2023-04-06T05:15:56;59.85;;;29.38;;
22268;SDS011;11303;50.772;19.670;2023-04-06T05:18:19;50.35;;;26.63;;
22268;SDS011;11303;50.772;19.670;2023-04-06T05:20:26;52.92;;;27.42;;
22268;SDS011;11303;50.772;19.670;2023-04-06T05:22:42;60.30;;;31.92;;
22268;SDS011;11303;50.772;19.670;2023-04-06T05:24:46;68.57;;;31.70;;
22268;SDS011;11303;50.772;19.670;2023-04-06T05:26:57;65.95;;;31.40;;
22268;SDS011;11303;50.772;19.670;2023-04-06T05:29:12;53.15;;;28.23;;
22268;SDS011;11303;50.772;19.670;2023-04-06T05:31:27;54.88;;;27.17;;
22268;SDS011;11303;50.772;19.670;2023-04-06T05:34:04;58.70;;;29.65;;
22268;SDS011;11303;50.772;19.670;2023-04-06T05:36:23;62.25;;;29.55;;
22268;SDS011;11303;50.772;19.670;2023-04-06T05:38:27;64.57;;;32.58;;
22268;SDS011;11303;50.772;19.670;2023-04-06T05:40:32;61.97;;;32.33;;
22268;SDS011;11303;50.772;19.670;2023-04-06T05:43:00;62.95;;;28.73;;
22268;SDS011;11303;50.772;19.670;2023-04-06T05:45:13;76.43;;;36.75;;
22268;SDS011;11303;50.772;19.670;2023-04-06T05:47:30;65.38;;;33.65;;
22268;SDS011;11303;50.772;19.670;2023-04-06T05:49:41;66.45;;;32.53;;
22268;SDS011;11303;50.772;19.670;2023-04-06T05:52:07;67.60;;;31.70;;
22268;SDS011;11303;50.772;19.670;2023-04-06T05:54:17;72.45;;;34.22;;
22268;SDS011;11303;50.772;19.670;2023-04-06T05:56:25;59.08;;;31.25;;
22268;SDS011;11303;50.772;19.670;2023-04-06T05:58:52;57.83;;;29.10;;
22268;SDS011;11303;50.772;19.670;2023-04-06T06:00:59;53.92;;;28.00;;
22268;SDS011;11303;50.772;19.670;2023-04-06T06:03:22;50.45;;;24.65;;
22268;SDS011;11303;50.772;19.670;2023-04-06T06:05:29;41.65;;;23.17;;
22268;SDS011;11303;50.772;19.670;2023-04-06T06:07:40;44.47;;;22.70;;
22268;SDS011;11303;50.772;19.670;2023-04-06T06:09:45;44.85;;;23.35;;
22268;SDS011;11303;50.772;19.670;2023-04-06T06:11:46;42.45;;;22.15;;
22268;SDS011;11303;50.772;19.670;2023-04-06T06:13:48;37.63;;;19.80;;
22268;SDS011;11303;50.772;19.670;2023-04-06T06:15:50;35.78;;;17.35;;
22268;SDS011;11303;50.772;19.670;2023-04-06T06:17:51;36.33;;;21.15;;
22268;SDS011;11303;50.772;19.670;2023-04-06T06:19:53;34.00;;;18.92;;
22268;SDS011;11303;50.772;19.670;2023-04-06T06:21:54;33.72;;;17.05;;
22268;SDS011;11303;50.772;19.670;2023-04-06T06:23:56;35.33;;;18.55;;
22268;SDS011;11303;50.772;19.670;2023-04-06T06:25:57;29.70;;;14.70;;
22268;SDS011;11303;50.772;19.670;2023-04-06T06:27:59;34.40;;;16.15;;
22268;SDS011;11303;50.772;19.670;2023-04-06T06:30:01;38.78;;;18.60;;
22268;SDS011;11303;50.772;19.670;2023-04-06T06:32:03;24.17;;;11.90;;
22268;SDS011;11303;50.772;19.670;2023-04-06T06:34:04;30.63;;;16.15;;
22268;SDS011;11303;50.772;19.670;2023-04-06T06:36:06;34.53;;;17.52;;
22268;SDS011;11303;50.772;19.670;2023-04-06T06:38:10;30.55;;;17.23;;
22268;SDS011;11303;50.772;19.670;2023-04-06T06:40:12;27.67;;;16.10;;
22268;SDS011;11303;50.772;19.670;2023-04-06T06:42:14;33.47;;;17.25;;
22268;SDS011;11303;50.772;19.670;2023-04-06T06:44:16;32.60;;;17.48;;
22268;SDS011;11303;50.772;19.670;2023-04-06T06:46:17;31.73;;;17.67;;
22268;SDS011;11303;50.772;19.670;2023-04-06T06:48:19;24.00;;;11.52;;
22268;SDS011;11303;50.772;19.670;2023-04-06T06:50:21;34.72;;;17.98;;
22268;SDS011;11303;50.772;19.670;2023-04-06T06:52:22;29.85;;;14.77;;
22268;SDS011;11303;50.772;19.670;2023-04-06T06:54:25;30.08;;;15.07;;
22268;SDS011;11303;50.772;19.670;2023-04-06T06:56:26;29.98;;;15.05;;
22268;SDS011;11303;50.772;19.670;2023-04-06T06:58:29;34.53;;;17.20;;
22268;SDS011;11303;50.772;19.670;2023-04-06T07:00:30;33.05;;;14.88;;
22268;SDS011;11303;50.772;19.670;2023-04-06T07:02:39;28.70;;;15.52;;
22268;SDS011;11303;50.772;19.670;2023-04-06T07:04:41;34.28;;;18.30;;
22268;SDS011;11303;50.772;19.670;2023-04-06T07:06:43;30.45;;;16.10;;
22268;SDS011;11303;50.772;19.670;2023-04-06T07:08:44;28.40;;;14.50;;
22268;SDS011;11303;50.772;19.670;2023-04-06T07:10:46;32.55;;;15.85;;
22268;SDS011;11303;50.772;19.670;2023-04-06T07:12:48;23.35;;;12.00;;
22268;SDS011;11303;50.772;19.670;2023-04-06T07:14:50;30.08;;;15.50;;
22268;SDS011;11303;50.772;19.670;2023-04-06T07:16:51;24.23;;;13.43;;
22268;SDS011;11303;50.772;19.670;2023-04-06T07:18:53;29.95;;;13.00;;
22268;SDS011;11303;50.772;19.670;2023-04-06T07:20:55;23.10;;;11.05;;
22268;SDS011;11303;50.772;19.670;2023-04-06T07:22:56;11.95;;;6.50;;
22268;SDS011;11303;50.772;19.670;2023-04-06T07:24:58;16.55;;;8.88;;
22268;SDS011;11303;50.772;19.670;2023-04-06T07:27:00;23.17;;;9.65;;
22268;SDS011;11303;50.772;19.670;2023-04-06T07:29:02;20.25;;;10.77;;
22268;SDS011;11303;50.772;19.670;2023-04-06T07:31:06;20.83;;;11.27;;
22268;SDS011;11303;50.772;19.670;2023-04-06T07:33:10;11.48;;;6.47;;
22268;SDS011;11303;50.772;19.670;2023-04-06T07:35:22;18.45;;;8.77;;
22268;SDS011;11303;50.772;19.670;2023-04-06T07:37:24;18.75;;;9.50;;
22268;SDS011;11303;50.772;19.670;2023-04-06T07:39:26;11.23;;;5.55;;
22268;SDS011;11303;50.772;19.670;2023-04-06T07:41:28;13.98;;;6.38;;
22268;SDS011;11303;50.772;19.670;2023-04-06T07:43:29;6.03;;;4.07;;
22268;SDS011;11303;50.772;19.670;2023-04-06T07:45:37;7.35;;;4.72;;
22268;SDS011;11303;50.772;19.670;2023-04-06T07:47:48;14.18;;;7.65;;
22268;SDS011;11303;50.772;19.670;2023-04-06T07:50:01;19.27;;;9.93;;
22268;SDS011;11303;50.772;19.670;2023-04-06T07:52:02;15.65;;;7.03;;
22268;SDS011;11303;50.772;19.670;2023-04-06T07:54:04;12.55;;;6.18;;
22268;SDS011;11303;50.772;19.670;2023-04-06T07:56:06;7.15;;;4.40;;
22268;SDS011;11303;50.772;19.670;2023-04-06T07:58:08;8.23;;;5.20;;
22268;SDS011;11303;50.772;19.670;2023-04-06T08:00:10;8.40;;;5.18;;
22268;SDS011;11303;50.772;19.670;2023-04-06T08:02:21;5.57;;;3.25;;
22268;SDS011;11303;50.772;19.670;2023-04-06T08:04:23;15.82;;;7.57;;
22268;SDS011;11303;50.772;19.670;2023-04-06T08:06:24;5.82;;;4.40;;
22268;SDS011;11303;50.772;19.670;2023-04-06T08:08:26;9.68;;;5.57;;
22268;SDS011;11303;50.772;19.670;2023-04-06T08:10:27;14.88;;;7.63;;
22268;SDS011;11303;50.772;19.670;2023-04-06T08:12:29;13.68;;;4.88;;
22268;SDS011;11303;50.772;19.670;2023-04-06T08:14:31;11.43;;;6.20;;
22268;SDS011;11303;50.772;19.670;2023-04-06T08:16:32;7.05;;;4.05;;
22268;SDS011;11303;50.772;19.670;2023-04-06T08:18:33;7.70;;;4.75;;
22268;SDS011;11303;50.772;19.670;2023-04-06T08:20:35;7.00;;;4.15;;
22268;SDS011;11303;50.772;19.670;2023-04-06T08:22:37;11.52;;;6.65;;
22268;SDS011;11303;50.772;19.670;2023-04-06T08:24:38;11.38;;;5.70;;
22268;SDS011;11303;50.772;19.670;2023-04-06T08:26:40;11.95;;;7.78;;
22268;SDS011;11303;50.772;19.670;2023-04-06T08:28:42;13.60;;;6.70;;
22268;SDS011;11303;50.772;19.670;2023-04-06T08:30:47;5.53;;;2.95;;
22268;SDS011;11303;50.772;19.670;2023-04-06T08:32:49;6.32;;;4.07;;
22268;SDS011;11303;50.772;19.670;2023-04-06T08:34:54;8.63;;;3.83;;
22268;SDS011;11303;50.772;19.670;2023-04-06T08:36:56;5.55;;;3.33;;
22268;SDS011;11303;50.772;19.670;2023-04-06T08:38:58;7.53;;;3.80;;
22268;SDS011;11303;50.772;19.670;2023-04-06T08:41:00;9.65;;;5.90;;
22268;SDS011;11303;50.772;19.670;2023-04-06T08:43:06;9.70;;;4.65;;
22268;SDS011;11303;50.772;19.670;2023-04-06T08:45:09;8.27;;;3.85;;
22268;SDS011;11303;50.772;19.670;2023-04-06T08:47:11;5.38;;;3.13;;
22268;SDS011;11303;50.772;19.670;2023-04-06T08:49:13;7.38;;;4.28;;
22268;SDS011;11303;50.772;19.670;2023-04-06T08:51:15;8.00;;;4.13;;
22268;SDS011;11303;50.772;19.670;2023-04-06T08:53:16;9.48;;;4.80;;
22268;SDS011;11303;50.772;19.670;2023-04-06T08:55:19;9.95;;;5.28;;
22268;SDS011;11303;50.772;19.670;2023-04-06T08:57:20;4.35;;;2.60;;
22268;SDS011;11303;50.772;19.670;2023-04-06T08:59:23;5.82;;;3.10;;
22268;SDS011;11303;50.772;19.670;2023-04-06T09:01:27;6.97;;;3.88;;
22268;SDS011;11303;50.772;19.670;2023-04-06T09:03:30;8.63;;;4.30;;
22268;SDS011;11303;50.772;19.670;2023-04-06T09:05:33;13.65;;;6.93;;
22268;SDS011;11303;50.772;19.670;2023-04-06T09:07:35;5.25;;;3.22;;
22268;SDS011;11303;50.772;19.670;2023-04-06T09:09:37;8.70;;;4.63;;
22268;SDS011;11303;50.772;19.670;2023-04-06T09:11:42;7.07;;;2.58;;
22268;SDS011;11303;50.772;19.670;2023-04-06T09:13:47;9.48;;;4.15;;
22268;SDS011;11303;50.772;19.670;2023-04-06T09:16:01;7.93;;;4.35;;
22268;SDS011;11303;50.772;19.670;2023-04-06T09:18:03;8.00;;;3.08;;
22268;SDS011;11303;50.772;19.670;2023-04-06T09:20:05;9.65;;;5.35;;
22268;SDS011;11303;50.772;19.670;2023-04-06T09:22:07;9.00;;;4.43;;
22268;SDS011;11303;50.772;19.670;2023-04-06T09:24:08;4.93;;;2.90;;
22268;SDS011;11303;50.772;19.670;2023-04-06T09:26:13;7.72;;;4.00;;
22268;SDS011;11303;50.772;19.670;2023-04-06T09:28:15;5.25;;;2.63;;
22268;SDS011;11303;50.772;19.670;2023-04-06T09:30:21;9.73;;;3.45;;
22268;SDS011;11303;50.772;19.670;2023-04-06T09:32:27;7.25;;;4.20;;
22268;SDS011;11303;50.772;19.670;2023-04-06T09:34:29;6.15;;;3.15;;
22268;SDS011;11303;50.772;19.670;2023-04-06T09:36:34;8.85;;;4.18;;
22268;SDS011;11303;50.772;19.670;2023-04-06T09:38:50;12.95;;;5.30;;
22268;SDS011;11303;50.772;19.670;2023-04-06T09:40:52;12.07;;;3.47;;
22268;SDS011;11303;50.772;19.670;2023-04-06T09:43:01;10.25;;;4.90;;
22268;SDS011;11303;50.772;19.670;2023-04-06T09:45:05;9.55;;;5.00;;
22268;SDS011;11303;50.772;19.670;2023-04-06T09:47:07;17.52;;;9.52;;
22268;SDS011;11303;50.772;19.670;2023-04-06T09:49:09;8.35;;;3.80;;
22268;SDS011;11303;50.772;19.670;2023-04-06T09:51:11;8.80;;;5.47;;
22268;SDS011;11303;50.772;19.670;2023-04-06T09:53:17;13.43;;;4.05;;
22268;SDS011;11303;50.772;19.670;2023-04-06T09:55:22;4.95;;;3.28;;
22268;SDS011;11303;50.772;19.670;2023-04-06T09:57:31;7.57;;;3.72;;
22268;SDS011;11303;50.772;19.670;2023-04-06T09:59:50;10.85;;;5.93;;
22268;SDS011;11303;50.772;19.670;2023-04-06T10:01:53;6.85;;;3.67;;
22268;SDS011;11303;50.772;19.670;2023-04-06T10:06:15;7.35;;;4.45;;
22268;SDS011;11303;50.772;19.670;2023-04-06T10:08:18;5.53;;;2.90;;
22268;SDS011;11303;50.772;19.670;2023-04-06T10:10:20;9.65;;;4.00;;
22268;SDS011;11303;50.772;19.670;2023-04-06T10:12:22;10.85;;;5.97;;
22268;SDS011;11303;50.772;19.670;2023-04-06T10:14:23;10.68;;;4.80;;
22268;SDS011;11303;50.772;19.670;2023-04-06T10:16:25;10.82;;;5.38;;
22268;SDS011;11303;50.772;19.670;2023-04-06T10:18:27;5.07;;;3.35;;
22268;SDS011;11303;50.772;19.670;2023-04-06T10:22:54;9.45;;;5.32;;
22268;SDS011;11303;50.772;19.670;2023-04-06T10:24:55;23.02;;;9.00;;
22268;SDS011;11303;50.772;19.670;2023-04-06T10:26:57;35.97;;;14.63;;
22268;SDS011;11303;50.772;19.670;2023-04-06T10:29:02;30.42;;;11.38;;
22268;SDS011;11303;50.772;19.670;2023-04-06T10:31:04;12.07;;;6.38;;
22268;SDS011;11303;50.772;19.670;2023-04-06T10:33:16;10.32;;;5.00;;
22268;SDS011;11303;50.772;19.670;2023-04-06T10:35:17;8.13;;;4.20;;
22268;SDS011;11303;50.772;19.670;2023-04-06T10:37:19;6.55;;;3.63;;
22268;SDS011;11303;50.772;19.670;2023-04-06T10:39:24;8.73;;;4.68;;
22268;SDS011;11303;50.772;19.670;2023-04-06T10:41:34;7.07;;;4.13;;
22268;SDS011;11303;50.772;19.670;2023-04-06T10:43:36;12.32;;;6.43;;
22268;SDS011;11303;50.772;19.670;2023-04-06T10:45:38;6.93;;;4.35;;
22268;SDS011;11303;50.772;19.670;2023-04-06T10:47:40;10.10;;;4.75;;
22268;SDS011;11303;50.772;19.670;2023-04-06T10:49:42;8.38;;;4.60;;
22268;SDS011;11303;50.772;19.670;2023-04-06T10:51:43;11.38;;;5.95;;
22268;SDS011;11303;50.772;19.670;2023-04-06T10:53:47;11.95;;;5.68;;
22268;SDS011;11303;50.772;19.670;2023-04-06T10:55:50;8.73;;;5.78;;
22268;SDS011;11303;50.772;19.670;2023-04-06T10:57:52;12.35;;;5.95;;
22268;SDS011;11303;50.772;19.670;2023-04-06T10:59:53;14.38;;;6.60;;
22268;SDS011;11303;50.772;19.670;2023-04-06T11:01:54;6.40;;;3.63;;
22268;SDS011;11303;50.772;19.670;2023-04-06T11:03:57;9.88;;;5.88;;
22268;SDS011;11303;50.772;19.670;2023-04-06T11:06:01;8.65;;;5.32;;
22268;SDS011;11303;50.772;19.670;2023-04-06T11:08:03;11.13;;;5.10;;
22268;SDS011;11303;50.772;19.670;2023-04-06T11:10:05;9.55;;;5.07;;
22268;SDS011;11303;50.772;19.670;2023-04-06T11:12:25;8.73;;;4.53;;
22268;SDS011;11303;50.772;19.670;2023-04-06T11:14:27;5.32;;;3.05;;
22268;SDS011;11303;50.772;19.670;2023-04-06T11:16:31;9.52;;;4.82;;
22268;SDS011;11303;50.772;19.670;2023-04-06T11:18:33;14.18;;;3.97;;
22268;SDS011;11303;50.772;19.670;2023-04-06T11:20:35;6.40;;;4.43;;
22268;SDS011;11303;50.772;19.670;2023-04-06T11:22:47;10.32;;;5.03;;
22268;SDS011;11303;50.772;19.670;2023-04-06T11:24:49;6.82;;;4.50;;
22268;SDS011;11303;50.772;19.670;2023-04-06T11:26:54;4.43;;;2.63;;
22268;SDS011;11303;50.772;19.670;2023-04-06T11:28:55;6.45;;;3.58;;
22268;SDS011;11303;50.772;19.670;2023-04-06T11:30:57;9.20;;;5.80;;
22268;SDS011;11303;50.772;19.670;2023-04-06T11:33:01;6.60;;;4.32;;
22268;SDS011;11303;50.772;19.670;2023-04-06T11:35:04;7.78;;;4.55;;
22268;SDS011;11303;50.772;19.670;2023-04-06T11:37:10;8.57;;;4.72;;
22268;SDS011;11303;50.772;19.670;2023-04-06T11:39:12;10.90;;;6.97;;
22268;SDS011;11303;50.772;19.670;2023-04-06T11:41:14;12.55;;;7.28;;
22268;SDS011;11303;50.772;19.670;2023-04-06T11:43:25;16.35;;;10.07;;
22268;SDS011;11303;50.772;19.670;2023-04-06T11:45:27;12.68;;;6.18;;
22268;SDS011;11303;50.772;19.670;2023-04-06T11:47:38;11.43;;;7.18;;
22268;SDS011;11303;50.772;19.670;2023-04-06T11:49:40;8.93;;;5.15;;
22268;SDS011;11303;50.772;19.670;2023-04-06T11:51:42;12.23;;;6.50;;
22268;SDS011;11303;50.772;19.670;2023-04-06T11:53:44;25.17;;;13.70;;
22268;SDS011;11303;50.772;19.670;2023-04-06T11:55:47;7.53;;;4.28;;
22268;SDS011;11303;50.772;19.670;2023-04-06T11:57:48;11.38;;;7.20;;
22268;SDS011;11303;50.772;19.670;2023-04-06T11:59:51;9.75;;;5.15;;
22268;SDS011;11303;50.772;19.670;2023-04-06T12:01:53;9.23;;;6.15;;
22268;SDS011;11303;50.772;19.670;2023-04-06T12:03:54;5.93;;;3.88;;
22268;SDS011;11303;50.772;19.670;2023-04-06T12:05:56;8.50;;;5.72;;